sensor_id;sensor_type;location;lat;lon;timestamp;temperature;humidity
8269;DHT22;4174;48.304;16.364;2024-02-28T00:03:46;11.60;99.90
8269;DHT22;4174;48.304;16.364;2024-02-28T00:09:50;11.50;99.90
8269;DHT22;4174;48.304;16.364;2024-02-28T00:15:54;11.40;99.90
8269;DHT22;4174;48.304;16.364;2024-02-28T00:21:57;11.40;99.90
8269;DHT22;4174;48.304;16.364;2024-02-28T00:28:01;11.30;99.90
8269;DHT22;4174;48.304;16.364;2024-02-28T00:34:06;11.40;99.90
8269;DHT22;4174;48.304;16.364;2024-02-28T00:40:10;11.40;99.90
8269;DHT22;4174;48.304;16.364;2024-02-28T00:46:14;11.30;99.90
8269;DHT22;4174;48.304;16.364;2024-02-28T00:52:18;11.40;99.90
8269;DHT22;4174;48.304;16.364;2024-02-28T00:58:22;11.40;99.90
8269;DHT22;4174;48.304;16.364;2024-02-28T01:04:25;11.50;99.90
8269;DHT22;4174;48.304;16.364;2024-02-28T01:10:29;11.60;99.90
8269;DHT22;4174;48.304;16.364;2024-02-28T01:16:33;11.40;99.90
8269;DHT22;4174;48.304;16.364;2024-02-28T01:22:36;11.40;99.90
8269;DHT22;4174;48.304;16.364;2024-02-28T01:28:40;11.30;99.90
8269;DHT22;4174;48.304;16.364;2024-02-28T01:34:44;11.40;99.90
8269;DHT22;4174;48.304;16.364;2024-02-28T01:40:47;11.60;99.90
8269;DHT22;4174;48.304;16.364;2024-02-28T01:46:51;11.40;99.90
8269;DHT22;4174;48.304;16.364;2024-02-28T01:52:54;11.50;99.90
8269;DHT22;4174;48.304;16.364;2024-02-28T01:58:57;11.70;99.90
8269;DHT22;4174;48.304;16.364;2024-02-28T02:05:00;11.60;99.90
8269;DHT22;4174;48.304;16.364;2024-02-28T02:11:04;11.60;99.90
8269;DHT22;4174;48.304;16.364;2024-02-28T02:17:06;11.80;99.90
8269;DHT22;4174;48.304;16.364;2024-02-28T02:23:11;12.20;99.90
8269;DHT22;4174;48.304;16.364;2024-02-28T02:29:15;12.20;99.90
8269;DHT22;4174;48.304;16.364;2024-02-28T02:35:19;12.50;99.90
8269;DHT22;4174;48.304;16.364;2024-02-28T02:41:22;12.70;99.90
8269;DHT22;4174;48.304;16.364;2024-02-28T02:47:26;12.80;99.90
8269;DHT22;4174;48.304;16.364;2024-02-28T02:53:31;11.50;99.90
8269;DHT22;4174;48.304;16.364;2024-02-28T02:59:35;11.50;99.90
8269;DHT22;4174;48.304;16.364;2024-02-28T03:05:37;11.20;99.90
8269;DHT22;4174;48.304;16.364;2024-02-28T03:11:41;11.00;99.90
8269;DHT22;4174;48.304;16.364;2024-02-28T03:17:46;11.30;99.90
8269;DHT22;4174;48.304;16.364;2024-02-28T03:23:51;11.20;99.90
8269;DHT22;4174;48.304;16.364;2024-02-28T03:29:54;11.10;99.90
8269;DHT22;4174;48.304;16.364;2024-02-28T03:35:58;10.80;99.90
8269;DHT22;4174;48.304;16.364;2024-02-28T03:42:02;10.80;99.90
8269;DHT22;4174;48.304;16.364;2024-02-28T03:48:07;10.70;99.90
8269;DHT22;4174;48.304;16.364;2024-02-28T03:54:11;10.30;99.90
8269;DHT22;4174;48.304;16.364;2024-02-28T04:00:16;10.30;99.90
8269;DHT22;4174;48.304;16.364;2024-02-28T04:06:20;9.90;99.90
8269;DHT22;4174;48.304;16.364;2024-02-28T04:12:25;9.70;99.90
8269;DHT22;4174;48.304;16.364;2024-02-28T04:18:28;9.70;99.90
8269;DHT22;4174;48.304;16.364;2024-02-28T04:24:31;9.70;99.90
8269;DHT22;4174;48.304;16.364;2024-02-28T04:30:34;9.70;99.90
8269;DHT22;4174;48.304;16.364;2024-02-28T04:36:38;9.50;99.90
8269;DHT22;4174;48.304;16.364;2024-02-28T04:42:42;9.50;99.90
8269;DHT22;4174;48.304;16.364;2024-02-28T04:48:46;9.40;99.90
8269;DHT22;4174;48.304;16.364;2024-02-28T04:54:49;9.30;99.90
8269;DHT22;4174;48.304;16.364;2024-02-28T05:00:54;9.20;99.90
8269;DHT22;4174;48.304;16.364;2024-02-28T05:06:59;9.10;99.90
8269;DHT22;4174;48.304;16.364;2024-02-28T05:13:03;9.00;99.90
8269;DHT22;4174;48.304;16.364;2024-02-28T05:19:07;9.00;99.90
8269;DHT22;4174;48.304;16.364;2024-02-28T05:25:10;8.80;99.90
8269;DHT22;4174;48.304;16.364;2024-02-28T05:31:20;8.70;99.90
8269;DHT22;4174;48.304;16.364;2024-02-28T05:37:23;8.60;99.90
8269;DHT22;4174;48.304;16.364;2024-02-28T05:43:27;8.60;99.90
8269;DHT22;4174;48.304;16.364;2024-02-28T05:49:30;8.50;99.90
8269;DHT22;4174;48.304;16.364;2024-02-28T05:55:34;8.50;99.90
8269;DHT22;4174;48.304;16.364;2024-02-28T06:01:38;8.30;99.90
8269;DHT22;4174;48.304;16.364;2024-02-28T06:07:41;8.50;99.90
8269;DHT22;4174;48.304;16.364;2024-02-28T06:13:46;8.40;99.90
8269;DHT22;4174;48.304;16.364;2024-02-28T06:19:49;8.60;99.90
8269;DHT22;4174;48.304;16.364;2024-02-28T06:25:53;8.40;99.90
8269;DHT22;4174;48.304;16.364;2024-02-28T06:31:58;8.40;99.90
8269;DHT22;4174;48.304;16.364;2024-02-28T06:38:01;8.30;99.90
8269;DHT22;4174;48.304;16.364;2024-02-28T06:44:05;8.40;99.90
8269;DHT22;4174;48.304;16.364;2024-02-28T06:50:09;8.40;99.90
8269;DHT22;4174;48.304;16.364;2024-02-28T06:56:13;8.40;99.90
8269;DHT22;4174;48.304;16.364;2024-02-28T07:02:17;8.50;99.90
8269;DHT22;4174;48.304;16.364;2024-02-28T07:08:21;8.60;99.90
8269;DHT22;4174;48.304;16.364;2024-02-28T07:14:25;8.80;99.90
8269;DHT22;4174;48.304;16.364;2024-02-28T07:20:29;8.90;99.90
8269;DHT22;4174;48.304;16.364;2024-02-28T07:26:32;8.80;99.90
8269;DHT22;4174;48.304;16.364;2024-02-28T07:32:36;9.00;99.90
8269;DHT22;4174;48.304;16.364;2024-02-28T07:38:42;9.20;99.90
8269;DHT22;4174;48.304;16.364;2024-02-28T07:44:46;9.20;99.90
8269;DHT22;4174;48.304;16.364;2024-02-28T07:50:49;9.30;99.90
8269;DHT22;4174;48.304;16.364;2024-02-28T07:56:53;9.30;99.90
8269;DHT22;4174;48.304;16.364;2024-02-28T08:02:56;9.30;99.90
8269;DHT22;4174;48.304;16.364;2024-02-28T08:09:00;9.60;99.90
8269;DHT22;4174;48.304;16.364;2024-02-28T08:15:05;9.90;99.90
8269;DHT22;4174;48.304;16.364;2024-02-28T08:21:08;9.90;99.90
8269;DHT22;4174;48.304;16.364;2024-02-28T08:27:12;9.80;99.90
8269;DHT22;4174;48.304;16.364;2024-02-28T08:33:16;10.10;99.90
8269;DHT22;4174;48.304;16.364;2024-02-28T08:39:19;10.40;99.90
8269;DHT22;4174;48.304;16.364;2024-02-28T08:45:23;10.70;99.90
8269;DHT22;4174;48.304;16.364;2024-02-28T08:51:27;10.80;99.90
8269;DHT22;4174;48.304;16.364;2024-02-28T08:57:30;11.40;99.90
8269;DHT22;4174;48.304;16.364;2024-02-28T09:03:34;11.60;99.90
8269;DHT22;4174;48.304;16.364;2024-02-28T09:09:41;11.70;99.90
8269;DHT22;4174;48.304;16.364;2024-02-28T09:15:41;11.50;99.90
8269;DHT22;4174;48.304;16.364;2024-02-28T09:21:45;11.50;99.90
8269;DHT22;4174;48.304;16.364;2024-02-28T09:27:49;11.60;99.90
8269;DHT22;4174;48.304;16.364;2024-02-28T09:33:52;11.90;99.90
8269;DHT22;4174;48.304;16.364;2024-02-28T09:39:57;12.20;99.90
8269;DHT22;4174;48.304;16.364;2024-02-28T09:46:03;12.60;99.90
8269;DHT22;4174;48.304;16.364;2024-02-28T09:52:02;13.30;99.90
8269;DHT22;4174;48.304;16.364;2024-02-28T09:58:06;13.60;99.90
8269;DHT22;4174;48.304;16.364;2024-02-28T10:04:08;14.00;99.90
8269;DHT22;4174;48.304;16.364;2024-02-28T10:10:11;14.40;99.90
8269;DHT22;4174;48.304;16.364;2024-02-28T10:16:15;14.20;99.90
8269;DHT22;4174;48.304;16.364;2024-02-28T10:22:19;14.20;99.90
8269;DHT22;4174;48.304;16.364;2024-02-28T10:28:22;14.30;99.90
8269;DHT22;4174;48.304;16.364;2024-02-28T10:34:26;13.80;99.90
8269;DHT22;4174;48.304;16.364;2024-02-28T10:40:30;13.90;99.90
8269;DHT22;4174;48.304;16.364;2024-02-28T10:46:34;14.20;99.90
8269;DHT22;4174;48.304;16.364;2024-02-28T10:52:39;14.90;99.90
8269;DHT22;4174;48.304;16.364;2024-02-28T10:58:47;15.80;99.90
8269;DHT22;4174;48.304;16.364;2024-02-28T11:04:54;15.30;99.90
8269;DHT22;4174;48.304;16.364;2024-02-28T11:10:58;15.30;99.90
8269;DHT22;4174;48.304;16.364;2024-02-28T11:17:02;14.50;99.90
8269;DHT22;4174;48.304;16.364;2024-02-28T11:23:06;14.50;99.90
8269;DHT22;4174;48.304;16.364;2024-02-28T11:29:10;14.70;99.90
8269;DHT22;4174;48.304;16.364;2024-02-28T11:35:14;14.60;99.90
8269;DHT22;4174;48.304;16.364;2024-02-28T11:41:25;14.60;99.90
8269;DHT22;4174;48.304;16.364;2024-02-28T11:47:27;14.80;99.90
8269;DHT22;4174;48.304;16.364;2024-02-28T11:53:31;14.70;99.90
8269;DHT22;4174;48.304;16.364;2024-02-28T11:59:34;14.80;99.90
8269;DHT22;4174;48.304;16.364;2024-02-28T12:05:38;14.50;99.90
8269;DHT22;4174;48.304;16.364;2024-02-28T12:11:42;14.60;99.90
8269;DHT22;4174;48.304;16.364;2024-02-28T12:17:47;14.60;99.90
8269;DHT22;4174;48.304;16.364;2024-02-28T12:23:51;14.60;99.90
8269;DHT22;4174;48.304;16.364;2024-02-28T12:29:54;15.00;99.90
8269;DHT22;4174;48.304;16.364;2024-02-28T12:35:58;14.70;99.90
8269;DHT22;4174;48.304;16.364;2024-02-28T12:42:02;15.20;99.90
8269;DHT22;4174;48.304;16.364;2024-02-28T12:48:07;15.20;99.90
8269;DHT22;4174;48.304;16.364;2024-02-28T12:54:10;15.00;99.90
8269;DHT22;4174;48.304;16.364;2024-02-28T13:00:15;15.00;99.90
8269;DHT22;4174;48.304;16.364;2024-02-28T13:06:20;14.60;99.90
8269;DHT22;4174;48.304;16.364;2024-02-28T13:12:24;14.50;99.90
8269;DHT22;4174;48.304;16.364;2024-02-28T13:18:28;14.10;99.90
8269;DHT22;4174;48.304;16.364;2024-02-28T13:24:32;14.00;99.90
8269;DHT22;4174;48.304;16.364;2024-02-28T13:30:36;13.70;99.90
8269;DHT22;4174;48.304;16.364;2024-02-28T13:36:39;13.60;99.90
8269;DHT22;4174;48.304;16.364;2024-02-28T13:42:43;13.70;99.90
8269;DHT22;4174;48.304;16.364;2024-02-28T13:48:47;13.80;99.90
8269;DHT22;4174;48.304;16.364;2024-02-28T13:54:50;13.70;99.90
8269;DHT22;4174;48.304;16.364;2024-02-28T14:00:54;13.80;99.90
8269;DHT22;4174;48.304;16.364;2024-02-28T14:06:58;14.00;99.90
8269;DHT22;4174;48.304;16.364;2024-02-28T14:13:03;14.70;99.90
8269;DHT22;4174;48.304;16.364;2024-02-28T14:19:07;14.60;99.90
8269;DHT22;4174;48.304;16.364;2024-02-28T14:25:13;14.40;99.90
8269;DHT22;4174;48.304;16.364;2024-02-28T14:31:15;14.20;99.90
8269;DHT22;4174;48.304;16.364;2024-02-28T14:37:20;13.50;99.90
8269;DHT22;4174;48.304;16.364;2024-02-28T14:43:24;13.50;99.90
8269;DHT22;4174;48.304;16.364;2024-02-28T14:49:27;13.20;99.90
8269;DHT22;4174;48.304;16.364;2024-02-28T14:55:31;13.20;99.90
8269;DHT22;4174;48.304;16.364;2024-02-28T15:01:35;13.30;99.90
8269;DHT22;4174;48.304;16.364;2024-02-28T15:07:38;13.20;99.90
8269;DHT22;4174;48.304;16.364;2024-02-28T15:13:41;13.30;99.90
8269;DHT22;4174;48.304;16.364;2024-02-28T15:19:45;13.40;99.90
8269;DHT22;4174;48.304;16.364;2024-02-28T15:25:49;13.30;99.90
8269;DHT22;4174;48.304;16.364;2024-02-28T15:31:52;13.20;99.90
8269;DHT22;4174;48.304;16.364;2024-02-28T15:37:55;13.00;99.90
8269;DHT22;4174;48.304;16.364;2024-02-28T15:43:59;12.70;99.90
8269;DHT22;4174;48.304;16.364;2024-02-28T15:50:04;12.30;99.90
8269;DHT22;4174;48.304;16.364;2024-02-28T15:56:09;12.40;99.90
8269;DHT22;4174;48.304;16.364;2024-02-28T16:02:13;12.20;99.90
8269;DHT22;4174;48.304;16.364;2024-02-28T16:08:17;11.70;99.90
8269;DHT22;4174;48.304;16.364;2024-02-28T16:14:21;11.60;99.90
8269;DHT22;4174;48.304;16.364;2024-02-28T16:20:24;11.50;99.90
8269;DHT22;4174;48.304;16.364;2024-02-28T16:26:28;11.40;99.90
8269;DHT22;4174;48.304;16.364;2024-02-28T16:32:32;11.50;99.90
8269;DHT22;4174;48.304;16.364;2024-02-28T16:38:36;11.40;99.90
8269;DHT22;4174;48.304;16.364;2024-02-28T16:44:41;10.80;99.90
8269;DHT22;4174;48.304;16.364;2024-02-28T16:50:45;10.80;99.90
8269;DHT22;4174;48.304;16.364;2024-02-28T16:56:49;11.00;99.90
8269;DHT22;4174;48.304;16.364;2024-02-28T17:02:53;10.90;99.90
8269;DHT22;4174;48.304;16.364;2024-02-28T17:08:57;10.90;99.90
8269;DHT22;4174;48.304;16.364;2024-02-28T17:15:00;11.00;99.90
8269;DHT22;4174;48.304;16.364;2024-02-28T17:21:04;10.90;99.90
8269;DHT22;4174;48.304;16.364;2024-02-28T17:27:08;10.80;99.90
8269;DHT22;4174;48.304;16.364;2024-02-28T17:33:12;10.90;99.90
8269;DHT22;4174;48.304;16.364;2024-02-28T17:39:16;11.10;99.90
8269;DHT22;4174;48.304;16.364;2024-02-28T17:45:19;11.20;99.90
8269;DHT22;4174;48.304;16.364;2024-02-28T17:51:24;11.20;99.90
8269;DHT22;4174;48.304;16.364;2024-02-28T17:57:27;11.20;99.90
8269;DHT22;4174;48.304;16.364;2024-02-28T18:03:31;11.30;99.90
8269;DHT22;4174;48.304;16.364;2024-02-28T18:09:36;11.10;99.90
8269;DHT22;4174;48.304;16.364;2024-02-28T18:15:37;11.10;99.90
8269;DHT22;4174;48.304;16.364;2024-02-28T18:21:41;10.90;99.90
8269;DHT22;4174;48.304;16.364;2024-02-28T18:27:44;10.70;99.90
8269;DHT22;4174;48.304;16.364;2024-02-28T18:33:48;10.70;99.90
8269;DHT22;4174;48.304;16.364;2024-02-28T18:39:52;10.60;99.90
8269;DHT22;4174;48.304;16.364;2024-02-28T18:45:55;10.60;99.90
8269;DHT22;4174;48.304;16.364;2024-02-28T18:51:59;10.60;99.90
8269;DHT22;4174;48.304;16.364;2024-02-28T18:58:02;10.70;99.90
8269;DHT22;4174;48.304;16.364;2024-02-28T19:04:07;10.70;99.90
8269;DHT22;4174;48.304;16.364;2024-02-28T19:10:10;10.70;99.90
8269;DHT22;4174;48.304;16.364;2024-02-28T19:16:14;10.80;99.90
8269;DHT22;4174;48.304;16.364;2024-02-28T19:22:17;10.70;99.90
8269;DHT22;4174;48.304;16.364;2024-02-28T19:28:21;10.50;99.90
8269;DHT22;4174;48.304;16.364;2024-02-28T19:34:24;10.50;99.90
8269;DHT22;4174;48.304;16.364;2024-02-28T19:40:28;10.40;99.90
8269;DHT22;4174;48.304;16.364;2024-02-28T19:46:32;10.30;99.90
8269;DHT22;4174;48.304;16.364;2024-02-28T19:52:36;10.20;99.90
8269;DHT22;4174;48.304;16.364;2024-02-28T19:58:38;10.10;99.90
8269;DHT22;4174;48.304;16.364;2024-02-28T20:04:41;10.00;99.90
8269;DHT22;4174;48.304;16.364;2024-02-28T20:10:46;9.90;99.90
8269;DHT22;4174;48.304;16.364;2024-02-28T20:16:49;9.90;99.90
8269;DHT22;4174;48.304;16.364;2024-02-28T20:22:52;9.70;99.90
8269;DHT22;4174;48.304;16.364;2024-02-28T20:28:56;9.70;99.90
8269;DHT22;4174;48.304;16.364;2024-02-28T20:35:00;9.60;99.90
8269;DHT22;4174;48.304;16.364;2024-02-28T20:41:04;9.50;99.90
8269;DHT22;4174;48.304;16.364;2024-02-28T20:47:07;9.50;99.90
8269;DHT22;4174;48.304;16.364;2024-02-28T20:53:11;9.40;99.90
8269;DHT22;4174;48.304;16.364;2024-02-28T20:59:15;9.40;99.90
8269;DHT22;4174;48.304;16.364;2024-02-28T21:05:18;9.20;99.90
8269;DHT22;4174;48.304;16.364;2024-02-28T21:11:22;9.20;99.90
8269;DHT22;4174;48.304;16.364;2024-02-28T21:17:26;9.00;99.90
8269;DHT22;4174;48.304;16.364;2024-02-28T21:23:30;9.00;99.90
8269;DHT22;4174;48.304;16.364;2024-02-28T21:29:34;8.90;99.90
8269;DHT22;4174;48.304;16.364;2024-02-28T21:35:37;8.80;99.90
8269;DHT22;4174;48.304;16.364;2024-02-28T21:41:40;8.80;99.90
8269;DHT22;4174;48.304;16.364;2024-02-28T21:47:43;8.80;99.90
8269;DHT22;4174;48.304;16.364;2024-02-28T21:53:47;8.80;99.90
8269;DHT22;4174;48.304;16.364;2024-02-28T21:59:51;8.50;99.90
8269;DHT22;4174;48.304;16.364;2024-02-28T22:05:55;8.60;99.90
8269;DHT22;4174;48.304;16.364;2024-02-28T22:11:59;8.50;99.90
8269;DHT22;4174;48.304;16.364;2024-02-28T22:18:04;8.50;99.90
8269;DHT22;4174;48.304;16.364;2024-02-28T22:24:09;8.60;99.90
8269;DHT22;4174;48.304;16.364;2024-02-28T22:30:12;8.70;99.90
8269;DHT22;4174;48.304;16.364;2024-02-28T22:36:17;8.60;99.90
8269;DHT22;4174;48.304;16.364;2024-02-28T22:42:22;8.60;99.90
8269;DHT22;4174;48.304;16.364;2024-02-28T22:48:24;8.60;99.90
8269;DHT22;4174;48.304;16.364;2024-02-28T22:54:27;8.50;99.90
8269;DHT22;4174;48.304;16.364;2024-02-28T23:00:31;8.50;99.90
8269;DHT22;4174;48.304;16.364;2024-02-28T23:06:35;8.40;99.90
8269;DHT22;4174;48.304;16.364;2024-02-28T23:12:38;8.20;99.90
8269;DHT22;4174;48.304;16.364;2024-02-28T23:18:42;8.20;99.90
8269;DHT22;4174;48.304;16.364;2024-02-28T23:24:45;8.20;99.90
8269;DHT22;4174;48.304;16.364;2024-02-28T23:30:49;8.20;99.90
8269;DHT22;4174;48.304;16.364;2024-02-28T23:36:53;8.20;99.90
8269;DHT22;4174;48.304;16.364;2024-02-28T23:42:57;8.20;99.90
8269;DHT22;4174;48.304;16.364;2024-02-28T23:49:00;8.20;99.90
8269;DHT22;4174;48.304;16.364;2024-02-28T23:55:06;8.20;99.90
